Time;durP1;ratioP1;P1;durP2;ratioP2;P2;SDS_P1;SDS_P2;PMS_P1;PMS_P2;Temp;Humidity;BMP_temperature;BMP_pressure;BME280_temperature;BME280_humidity;BME280_pressure;Samples;Min_cycle;Max_cycle;Signal;HPM_P1;HPM_P2
2022/06/28 02:54:06;;;;;;;;;;;;;;;7.43;84.44;100144.22;6222224;22;20345;-87
2022/06/28 02:56:31;;;;;;;;;;;;;;;7.33;84.72;100145.34;6310086;22;19919;-88
2022/06/28 02:59:02;;;;;;;;;;;;;;;7.34;85.08;100143.56;6337841;22;19979;-90
2022/06/28 03:01:27;;;;;;;;;;;;;;;7.38;85.02;100151.38;6337557;22;19915;-90
2022/06/28 03:03:53;;;;;;;;;;;;;;;7.42;85.15;100150.41;6310531;22;19917;-88
2022/06/28 03:06:18;;;;;;;;;;;;;;;7.45;85.55;100155.63;6338172;22;19906;-88
2022/06/28 03:08:43;;;;;;;;;;;;;;;7.51;85.55;100161.63;6309647;22;19916;-91
2022/06/28 03:11:08;;;;;;;;;;;;;;;7.45;85.78;100168.78;6339870;22;19964;-90
2022/06/28 03:13:34;;;;;;;;;;;;;;;7.38;85.71;100164.56;6339701;22;20003;-91
2022/06/28 03:15:59;;;;;;;;;;;;;;;7.53;85.43;100159.81;6340783;22;19915;-89
2022/06/28 03:18:24;;;;;;;;;;;;;;;7.51;85.66;100164.28;6339777;22;19914;-91
2022/06/28 03:20:49;;;;;;;;;;;;;;;7.51;85.55;100173.03;6339978;22;19964;-91
2022/06/28 03:23:15;;;;;;;;;;;;;;;7.40;85.75;100172.44;6338745;22;19924;-92
2022/06/28 03:25:40;;;;;;;;;;;;;;;7.45;85.76;100173.19;6312196;22;19942;-91
2022/06/28 03:28:05;;;;;;;;;;;;;;;7.38;85.89;100175.09;6339696;22;19917;-87
2022/06/28 03:30:31;;;;;;;;;;;;;;;7.48;85.66;100172.25;6339258;22;20056;-86
2022/06/28 03:32:59;;;;;;;;;;;;;;;7.58;85.36;100179.06;6312811;22;19914;-96
2022/06/28 03:35:25;;;;;;;;;;;;;;;7.52;85.84;100173.94;6312264;22;20336;-87
2022/06/28 03:37:50;;;;;;;;;;;;;;;7.52;85.98;100180.06;6338231;22;19945;-87
2022/06/28 03:40:15;;;;;;;;;;;;;;;7.54;86.15;100180.03;6338670;22;19911;-89
2022/06/28 03:42:41;;;;;;;;;;;;;;;7.56;86.36;100192.28;6339326;22;19918;-88
2022/06/28 03:45:06;;;;;;;;;;;;;;;7.45;86.53;100187.25;6339235;22;19911;-89
2022/06/28 03:47:31;;;;;;;;;;;;;;;7.48;86.52;100194.19;6311999;22;19915;-89
2022/06/28 03:49:57;;;;;;;;;;;;;;;7.48;86.41;100188.06;6311635;22;19914;-88
2022/06/28 03:52:31;;;;;;;;;;;;;;;7.48;86.64;100193.34;6311610;22;19922;-90
2022/06/28 03:54:59;;;;;;;;;;;;;;;7.38;86.31;100192.69;6309983;22;20246;-92
2022/06/28 03:57:25;;;;;;;;;;;;;;;7.42;86.40;100189.97;6339100;22;19915;-86
2022/06/28 03:59:50;;;;;;;;;;;;;;;7.39;86.24;100194.44;6339239;22;20014;-88
2022/06/28 08:00:02;;;;;;;;;;;;;;;7.73;87.58;100122.41;6207711;22;19937;-89
2022/06/28 08:02:36;;;;;;;;;;;;;;;7.70;87.82;100127.75;6308038;22;19950;-88
2022/06/28 08:05:02;;;;;;;;;;;;;;;7.73;87.59;100122.41;6280843;22;19946;-87
2022/06/28 08:07:32;;;;;;;;;;;;;;;7.75;87.24;100126.72;6280627;22;19918;-89
2022/06/28 08:09:57;;;;;;;;;;;;;;;7.61;87.21;100119.19;6280766;22;19961;-88
2022/06/28 08:12:22;;;;;;;;;;;;;;;7.57;87.32;100120.16;6307612;22;20330;-89
2022/06/28 08:14:48;;;;;;;;;;;;;;;7.57;87.64;100116.66;6306637;22;20236;-89
2022/06/28 08:17:13;;;;;;;;;;;;;;;7.60;87.66;100104.25;6307615;22;19910;-88
2022/06/28 08:19:39;;;;;;;;;;;;;;;7.60;87.71;100113.94;6308352;22;19911;-89
2022/06/28 08:22:04;;;;;;;;;;;;;;;7.61;87.47;100110.38;6307272;22;20245;-88
2022/06/28 08:24:29;;;;;;;;;;;;;;;7.66;87.42;100110.25;6307788;22;20338;-89
2022/06/28 08:26:55;;;;;;;;;;;;;;;7.69;87.72;100119.00;6280205;22;19946;-89
2022/06/28 08:29:21;;;;;;;;;;;;;;;7.62;87.17;100112.13;6278787;22;20009;-89
2022/06/28 08:31:46;;;;;;;;;;;;;;;7.59;87.00;100104.28;6280297;22;19911;-89
2022/06/28 08:34:12;;;;;;;;;;;;;;;7.67;86.46;100099.69;6280018;22;19914;-89
2022/06/28 08:36:37;;;;;;;;;;;;;;;7.78;87.36;100105.53;6307561;22;19911;-89
2022/06/28 08:39:03;;;;;;;;;;;;;;;7.68;87.57;100096.16;6307214;22;19953;-89
2022/06/28 08:41:33;;;;;;;;;;;;;;;7.71;87.51;100095.22;6307432;22;19917;-90
2022/06/28 08:43:58;;;;;;;;;;;;;;;7.56;87.20;100085.91;6278776;22;20349;-89
2022/06/28 08:46:24;;;;;;;;;;;;;;;7.53;87.47;100088.63;6279406;22;19915;-89
2022/06/28 08:49:01;;;;;;;;;;;;;;;7.67;87.30;100091.75;6279960;22;20290;-89
2022/06/28 08:51:30;;;;;;;;;;;;;;;7.71;86.92;100089.94;6279833;22;20233;-89
2022/06/28 08:53:58;;;;;;;;;;;;;;;7.63;86.99;100088.34;6306811;22;19919;-88
2022/06/28 08:56:24;;;;;;;;;;;;;;;7.81;87.66;100087.00;6279859;22;19972;-89
2022/06/28 08:58:49;;;;;;;;;;;;;;;7.71;87.16;100080.25;6278707;22;19915;-89
2022/06/28 09:01:14;;;;;;;;;;;;;;;7.76;86.91;100075.69;6323058;22;20261;-89
2022/06/28 09:03:40;;;;;;;;;;;;;;;7.76;86.86;100073.06;6337704;22;19922;-90
2022/06/28 09:06:05;;;;;;;;;;;;;;;7.78;86.96;100081.78;6338644;22;20267;-88
2022/06/28 09:08:31;;;;;;;;;;;;;;;7.99;87.15;100074.22;6338333;22;19910;-89
2022/06/28 09:10:57;;;;;;;;;;;;;;;7.85;86.83;100069.34;6337357;22;20001;-88
2022/06/28 09:13:27;;;;;;;;;;;;;;;12.76;77.88;100048.53;6341398;22;19942;-89
2022/06/28 09:15:52;;;;;;;;;;;;;;;9.40;84.15;100052.34;6335944;22;19919;-88
2022/06/28 09:18:18;;;;;;;;;;;;;;;8.64;87.37;100059.19;6338281;22;19936;-89
2022/06/28 09:20:44;;;;;;;;;;;;;;;8.39;87.91;100061.66;6338412;22;19910;-89
2022/06/28 09:23:22;;;;;;;;;;;;;;;8.26;87.58;100058.50;6310494;22;19910;-87
2022/06/28 09:25:48;;;;;;;;;;;;;;;8.09;87.54;100057.22;6338387;22;20389;-87
2022/06/28 09:28:21;;;;;;;;;;;;;;;8.22;87.10;100048.94;6311415;22;19911;-88
2022/06/28 09:30:51;;;;;;;;;;;;;;;8.07;86.63;100043.19;6308348;22;20019;-89
2022/06/28 09:33:26;;;;;;;;;;;;;;;8.18;86.72;100038.50;6338447;22;19921;-89
2022/06/28 09:35:52;;;;;;;;;;;;;;;8.13;86.26;100035.09;6337270;22;19915;-87
2022/06/28 09:38:28;;;;;;;;;;;;;;;8.11;86.69;100029.00;6311053;22;19917;-89
2022/06/28 09:40:54;;;;;;;;;;;;;;;8.13;87.09;100031.59;6338309;22;19906;-89
2022/06/28 09:43:51;;;;;;;;;;;;;;;8.14;87.25;100026.28;6338252;22;20002;-90
2022/06/28 09:49:28;;;;;;;;;;;;;;;8.17;87.22;100012.13;6335242;22;20005;-89
2022/06/28 09:51:55;;;;;;;;;;;;;;;8.07;86.67;100003.59;6337735;22;19917;-88
2022/06/28 09:54:25;;;;;;;;;;;;;;;8.05;86.86;100008.06;6338032;22;19948;-89
2022/06/28 09:56:53;;;;;;;;;;;;;;;8.03;86.91;100007.25;6337791;22;20250;-89
2022/06/28 09:59:20;;;;;;;;;;;;;;;8.14;86.79;99999.03;6336295;22;19914;-89
2022/06/28 10:01:47;;;;;;;;;;;;;;;8.13;86.48;99998.16;6338108;22;19915;-88
2022/06/28 10:04:22;;;;;;;;;;;;;;;8.18;86.84;99984.81;6338272;22;19917;-88
2022/06/28 10:06:48;;;;;;;;;;;;;;;8.11;87.00;99997.34;6310205;22;20274;-88
2022/06/28 10:09:14;;;;;;;;;;;;;;;8.16;87.19;99994.56;6337844;22;19918;-88
2022/06/28 10:17:39;;;;;;;;;;;;;;;8.16;87.01;99987.50;6337546;22;19918;-88
2022/06/28 10:20:06;;;;;;;;;;;;;;;8.16;86.93;99987.50;6284688;22;19963;-89
2022/06/28 10:25:34;;;;;;;;;;;;;;;8.23;87.28;99984.69;6201079;22;19927;-89
2022/06/28 10:28:02;;;;;;;;;;;;;;;8.23;87.30;99988.19;6179585;23;19916;-89
2022/06/28 10:30:29;;;;;;;;;;;;;;;8.30;87.77;99989.72;6178461;23;19957;-88
2022/06/28 10:33:09;;;;;;;;;;;;;;;8.26;87.06;99987.22;6282031;22;19920;-89
2022/06/28 10:35:34;;;;;;;;;;;;;;;8.24;87.25;99978.50;6283766;22;19913;-89
2022/06/28 10:38:18;;;;;;;;;;;;;;;;;;;;;
2022/06/28 10:47:40;;;;;;;;;;;;;;;8.14;87.31;99970.84;6239443;22;20424;-92
2022/06/28 10:50:12;;;;;;;;;;;;;;;;;;;;;
2022/06/28 10:52:38;;;;;;;;;;;;;;;8.91;92.10;99960.53;6179911;22;19999;-89
2022/06/28 10:58:07;;;;;;;;;;;;;;;8.79;93.34;99944.22;6180225;22;20095;-91
2022/06/28 11:00:37;;;;;;;;;;;;;;;8.81;92.41;99939.78;6178487;23;19917;-89
2022/06/28 11:03:08;;;;;;;;;;;;;;;9.32;95.00;99930.09;6283831;22;19916;-89
2022/06/28 11:05:48;;;;;;;;;;;;;;;9.54;96.87;99932.81;6283366;22;20286;-89
2022/06/28 11:08:42;;;;;;;;;;;;;;;9.01;94.05;99939.09;6283769;22;20615;-88
2022/06/28 11:11:13;;;;;;;;;;;;;;;8.87;92.44;99923.69;6183674;22;19919;-88
2022/06/28 11:13:38;;;;;;;;;;;;;;;9.27;95.19;99917.06;6283639;22;19965;-89
2022/06/28 11:19:14;;;;;;;;;;;;;;;9.01;94.58;99910.88;6180016;22;19940;-89
2022/06/28 11:21:45;;;;;;;;;;;;;;;9.19;95.06;99914.66;6283322;22;19916;-89
2022/06/28 11:24:33;;;;;;;;;;;;;;;9.61;96.67;99916.69;6282933;22;19923;-90
2022/06/28 11:27:53;;;;;;;;;;;;;;;;;;;;;
2022/06/28 11:30:01;;;;;;;;;;;;;;;9.02;92.38;99909.97;6244668;22;19990;-89
2022/06/28 11:32:33;;;;;;;;;;;;;;;9.24;93.67;99904.78;6248494;22;19918;-89
2022/06/28 11:34:58;;;;;;;;;;;;;;;9.64;96.46;99895.41;6248780;22;19916;-89
2022/06/28 11:37:24;;;;;;;;;;;;;;;9.80;97.17;99881.59;6273320;22;20382;-89
2022/06/28 11:39:59;;;;;;;;;;;;;;;9.22;93.66;99885.47;6247396;22;19937;-89
2022/06/28 11:42:28;;;;;;;;;;;;;;;9.25;92.80;99874.81;6248285;22;19919;-89
2022/06/28 11:45:03;;;;;;;;;;;;;;;9.62;95.56;99870.78;6272583;22;19911;-89
2022/06/28 11:47:28;;;;;;;;;;;;;;;9.90;96.65;99872.38;6273873;22;20044;-89
2022/06/28 11:50:14;;;;;;;;;;;;;;;9.27;93.06;99869.47;6248488;22;19915;-89
2022/06/28 11:52:50;;;;;;;;;;;;;;;9.57;94.80;99864.81;6258818;22;19916;-90
2022/06/28 11:55:16;;;;;;;;;;;;;;;9.76;96.93;99866.75;6285225;22;19994;-88
2022/06/28 11:57:41;;;;;;;;;;;;;;;9.48;95.12;99864.28;6180795;22;19912;-89
2022/06/28 12:00:10;;;;;;;;;;;;;;;9.31;93.04;99870.19;6283387;22;19970;-89
2022/06/28 12:02:36;;;;;;;;;;;;;;;9.61;95.38;99861.13;6181138;22;19913;-88
2022/06/28 12:05:02;;;;;;;;;;;;;;;9.84;97.18;99856.72;6285573;22;19919;-89
2022/06/28 12:07:34;;;;;;;;;;;;;;;9.51;93.97;99838.59;6284946;22;19953;-88
2022/06/28 12:10:00;;;;;;;;;;;;;;;9.38;92.49;99846.13;6283916;22;19916;-88
2022/06/28 12:12:39;;;;;;;;;;;;;;;9.74;95.44;99828.91;6283495;22;19989;-89
2022/06/28 12:15:05;;;;;;;;;;;;;;;9.84;97.02;99824.13;6283860;22;19909;-89
2022/06/28 12:17:41;;;;;;;;;;;;;;;9.81;94.71;99825.09;6284842;22;19923;-90
2022/06/28 12:20:07;;;;;;;;;;;;;;;9.77;94.11;99823.50;6180861;23;19908;-90
2022/06/28 12:22:32;;;;;;;;;;;;;;;9.98;96.21;99827.94;6285208;22;19918;-90
2022/06/28 12:25:00;;;;;;;;;;;;;;;9.99;96.89;99812.94;6181521;22;19931;-89
2022/06/28 12:27:31;;;;;;;;;;;;;;;9.48;92.97;99816.66;6285663;22;19913;-88
2022/06/28 12:33:50;;;;;;;;;;;;;;;;;;;;;
2022/06/28 12:36:18;;;;;;;;;;;;;;;10.61;93.39;99798.06;6133663;23;19991;-91
2022/06/28 12:38:44;;;;;;;;;;;;;;;10.31;91.90;99798.38;6285186;22;20235;-90
2022/06/28 12:41:11;;;;;;;;;;;;;;;10.41;94.21;99798.03;6179720;23;19923;-90
2022/06/28 12:43:44;;;;;;;;;;;;;;;10.55;96.73;99798.31;6284283;22;20324;-89
2022/06/28 12:46:14;;;;;;;;;;;;;;;10.12;94.09;99808.00;6284168;22;19920;-90
2022/06/28 12:48:49;;;;;;;;;;;;;;;10.26;95.34;99810.94;6180404;22;19924;-89
2022/06/28 12:51:14;;;;;;;;;;;;;;;10.40;97.32;99818.34;6178339;23;19919;-89
2022/06/28 12:53:48;;;;;;;;;;;;;;;10.30;96.15;99812.53;6180142;22;19916;-89
2022/06/28 12:56:16;;;;;;;;;;;;;;;10.20;95.21;99800.59;6284435;22;19947;-89
2022/06/28 12:58:48;;;;;;;;;;;;;;;10.42;97.35;99810.31;6180318;22;19917;-89
2022/06/28 13:01:24;;;;;;;;;;;;;;;;;;;;;
2022/06/28 13:03:50;;;;;;;;;;;;;;;9.98;94.25;99801.47;6180628;23;19995;-88
2022/06/28 13:06:22;;;;;;;;;;;;;;;10.29;96.14;99794.06;6284683;22;19940;-90
2022/06/28 13:08:50;;;;;;;;;;;;;;;10.44;97.47;99789.97;6273061;22;19934;-88
2022/06/28 13:11:22;;;;;;;;;;;;;;;10.08;94.65;99793.16;6247522;22;19922;-89
2022/06/28 13:13:49;;;;;;;;;;;;;;;10.10;93.00;99778.94;6246284;22;19998;-88
2022/06/28 13:16:17;;;;;;;;;;;;;;;10.29;95.75;99765.81;6247229;22;19922;-88
2022/06/28 13:18:45;;;;;;;;;;;;;;;10.48;97.71;99763.28;6272913;22;19921;-89
2022/06/28 13:21:11;;;;;;;;;;;;;;;9.95;94.13;99759.22;6273120;22;19912;-88
2022/06/28 13:23:40;;;;;;;;;;;;;;;9.96;94.14;99746.88;6272822;22;19912;-88
2022/06/28 13:26:05;;;;;;;;;;;;;;;10.26;96.31;99742.09;6246603;22;20654;-88
2022/06/28 13:28:30;;;;;;;;;;;;;;;10.54;97.58;99743.59;6272691;22;19911;-88
2022/06/28 13:30:56;;;;;;;;;;;;;;;9.96;93.50;99744.25;6271645;22;19915;-88
2022/06/28 13:33:21;;;;;;;;;;;;;;;10.14;94.49;99743.47;6226485;22;19986;-88
2022/06/28 13:35:49;;;;;;;;;;;;;;;10.48;96.46;99736.78;6180437;23;19948;-88
2022/06/28 13:38:17;;;;;;;;;;;;;;;10.37;96.63;99723.16;6284953;22;19927;-88
2022/06/28 13:40:43;;;;;;;;;;;;;;;10.07;94.27;99722.59;6284778;22;19951;-86
2022/06/28 13:45:53;;;;;;;;;;;;;;;10.44;97.17;99718.44;6176308;23;19962;-85
2022/06/28 13:48:21;;;;;;;;;;;;;;;10.16;95.00;99727.50;6180114;23;20278;-86
2022/06/28 13:50:47;;;;;;;;;;;;;;;10.30;95.53;99732.22;6179311;23;19916;-86
2022/06/28 13:53:12;;;;;;;;;;;;;;;10.51;97.21;99720.75;6282148;22;19916;-87
2022/06/28 13:55:38;;;;;;;;;;;;;;;10.36;96.65;99716.97;6179178;23;19921;-85
2022/06/28 13:58:03;;;;;;;;;;;;;;;10.12;94.45;99720.63;6180415;23;19967;-87
2022/06/28 14:00:38;;;;;;;;;;;;;;;10.35;96.45;99717.91;6179371;23;19916;-87
2022/06/28 14:03:27;;;;;;;;;;;;;;;10.55;97.65;99729.41;6284790;22;19938;-88
2022/06/28 14:05:55;;;;;;;;;;;;;;;10.23;94.91;99722.81;6181150;22;19985;-86
2022/06/28 14:08:21;;;;;;;;;;;;;;;10.43;96.70;99722.00;6180421;23;19912;-86
2022/06/28 14:10:47;;;;;;;;;;;;;;;10.53;98.08;99718.88;6284040;22;19917;-86
2022/06/28 14:13:12;;;;;;;;;;;;;;;10.24;94.93;99717.44;6180387;22;19916;-86
2022/06/28 14:15:38;;;;;;;;;;;;;;;10.43;95.97;99719.34;6282588;22;20019;-86
2022/06/28 14:18:03;;;;;;;;;;;;;;;10.72;97.36;99715.41;6179365;23;19942;-86
2022/06/28 14:20:29;;;;;;;;;;;;;;;10.53;96.54;99713.59;6283864;22;20232;-85
2022/06/28 14:22:54;;;;;;;;;;;;;;;10.38;95.22;99716.03;6284018;22;20239;-86
2022/06/28 14:25:22;;;;;;;;;;;;;;;10.69;96.91;99713.78;6180188;23;20328;-86
2022/06/28 14:27:47;;;;;;;;;;;;;;;10.69;97.42;99708.47;6180193;22;20396;-87
2022/06/28 14:30:16;;;;;;;;;;;;;;;10.23;94.44;99710.44;6178680;23;19912;-87
2022/06/28 14:32:41;;;;;;;;;;;;;;;10.58;96.13;99702.78;6180372;22;20016;-87
2022/06/28 14:35:07;;;;;;;;;;;;;;;10.69;97.30;99705.81;6180394;23;20583;-86
2022/06/28 14:37:32;;;;;;;;;;;;;;;10.30;94.70;99713.69;6283718;22;19913;-85
2022/06/28 14:39:57;;;;;;;;;;;;;;;10.50;95.74;99703.13;6180178;23;20347;-86
2022/06/28 14:42:23;;;;;;;;;;;;;;;10.74;97.04;99710.94;6278692;22;20013;-87
2022/06/28 14:44:48;;;;;;;;;;;;;;;10.45;95.31;99706.91;6303823;22;19942;-87
2022/06/28 14:47:14;;;;;;;;;;;;;;;10.40;94.83;99696.50;6301565;22;19918;-86
2022/06/28 14:49:39;;;;;;;;;;;;;;;10.71;96.61;99696.00;6305246;22;19915;-86
2022/06/28 14:52:05;;;;;;;;;;;;;;;10.59;96.05;99690.41;6306466;22;19918;-86
2022/06/28 14:54:30;;;;;;;;;;;;;;;10.49;95.35;99685.50;6303789;22;20291;-86
2022/06/28 14:56:55;;;;;;;;;;;;;;;10.68;96.83;99685.53;6304721;22;19911;-85
2022/06/28 14:59:21;;;;;;;;;;;;;;;10.74;97.25;99679.13;6304764;22;19911;-86
2022/06/28 15:01:46;;;;;;;;;;;;;;;10.48;94.70;99689.09;6302887;22;20215;-85
2022/06/28 15:04:11;;;;;;;;;;;;;;;10.65;96.48;99683.03;6306880;22;19977;-87
2022/06/28 15:06:37;;;;;;;;;;;;;;;10.85;97.62;99674.19;6308634;22;19965;-86
2022/06/28 15:09:02;;;;;;;;;;;;;;;10.44;94.85;99676.91;6307027;22;19949;-86
2022/06/28 15:11:27;;;;;;;;;;;;;;;10.76;96.15;99677.25;6307844;22;19969;-87
2022/06/28 15:13:53;;;;;;;;;;;;;;;10.95;97.25;99671.13;6304635;22;20366;-86
2022/06/28 15:16:20;;;;;;;;;;;;;;;10.44;94.55;99665.47;6305142;22;19922;-86
2022/06/28 15:18:46;;;;;;;;;;;;;;;10.71;96.08;99668.66;6307206;22;19910;-86
2022/06/28 15:32:11;;;;;;;;;;;;;;;10.50;94.85;99662.53;6307205;22;20021;-86
2022/06/28 15:34:36;;;;;;;;;;;;;;;10.71;96.41;99658.91;6307338;22;19973;-86
2022/06/28 15:37:01;;;;;;;;;;;;;;;10.87;97.55;99653.78;6306986;22;20318;-85
2022/06/28 15:39:27;;;;;;;;;;;;;;;10.32;94.36;99656.22;6306814;22;20273;-86
2022/06/28 15:41:53;;;;;;;;;;;;;;;10.59;95.87;99656.81;6269651;22;19927;-86
2022/06/28 15:44:28;;;;;;;;;;;;;;;;;;;;;
2022/06/28 15:50:02;;;;;;;;;;;;;;;10.79;96.04;99652.41;6180220;23;19935;-88
2022/06/28 15:52:27;;;;;;;;;;;;;;;10.98;97.21;99650.63;6284887;22;20335;-92
2022/06/28 15:58:17;;;;;;;;;;;;;;;10.84;96.27;99637.16;6211848;23;19916;-93
2022/06/28 16:00:42;;;;;;;;;;;;;;;10.72;96.33;99639.44;6191877;22;19940;-88
2022/06/28 16:06:04;;;;;;;;;;;;;;;10.93;96.29;99635.84;6181048;23;19923;-88
2022/06/28 16:09:08;;;;;;;;;;;;;;;;;;;;;
2022/06/28 16:11:36;;;;;;;;;;;;;;;10.50;94.00;99638.69;6179677;23;20007;-89
2022/06/28 16:17:13;;;;;;;;;;;;;;;10.87;96.35;99631.72;6177507;22;19924;-87
2022/06/28 16:19:53;;;;;;;;;;;;;;;10.58;94.45;99630.38;6181216;23;19912;-90
2022/06/28 16:22:20;;;;;;;;;;;;;;;10.94;96.49;99622.53;6180767;23;19935;-87
2022/06/28 16:24:46;;;;;;;;;;;;;;;10.92;96.83;99624.41;6285362;22;19916;-87
2022/06/28 16:27:11;;;;;;;;;;;;;;;10.53;94.04;99628.81;6285258;22;19908;-86
2022/06/28 16:29:36;;;;;;;;;;;;;;;10.83;95.81;99607.16;6304351;22;20243;-87
2022/06/28 16:32:02;;;;;;;;;;;;;;;11.02;97.10;99617.72;6306428;22;20229;-87
2022/06/28 16:34:28;;;;;;;;;;;;;;;10.47;93.83;99615.00;6306071;22;20373;-86
2022/06/28 16:36:53;;;;;;;;;;;;;;;10.71;95.46;99611.22;6304536;22;19917;-86
2022/06/28 16:39:27;;;;;;;;;;;;;;;11.01;96.97;99612.47;6305615;22;19989;-90
2022/06/28 16:41:52;;;;;;;;;;;;;;;10.61;94.78;99601.97;6306156;22;19911;-87
2022/06/28 16:47:39;;;;;;;;;;;;;;;11.11;96.97;99597.88;6242662;23;19919;-91
2022/06/28 16:50:08;;;;;;;;;;;;;;;10.59;94.29;99592.38;6304900;22;19918;-87
2022/06/28 16:52:33;;;;;;;;;;;;;;;10.89;95.21;99593.59;6305369;22;19911;-88
2022/06/28 16:55:21;;;;;;;;;;;;;;;11.16;96.78;99589.69;6306122;22;19922;-87
2022/06/28 16:57:53;;;;;;;;;;;;;;;10.67;93.91;99585.81;6282740;22;19911;-88
2022/06/28 17:00:19;;;;;;;;;;;;;;;10.83;94.75;99588.59;6303272;22;19927;-88
2022/06/28 17:02:47;;;;;;;;;;;;;;;11.04;96.45;99585.81;6307432;22;20323;-88
2022/06/28 17:05:15;;;;;;;;;;;;;;;10.85;95.19;99593.78;6306176;22;19915;-88
2022/06/28 17:07:41;;;;;;;;;;;;;;;10.70;93.82;99582.13;6305767;22;19914;-87
2022/06/28 17:10:06;;;;;;;;;;;;;;;11.00;95.75;99590.44;6307469;22;19965;-88
2022/06/28 17:12:33;;;;;;;;;;;;;;;10.94;96.04;99590.72;6306063;22;19946;-88
2022/06/28 17:14:59;;;;;;;;;;;;;;;10.54;93.11;99588.13;6306343;22;20307;-87
2022/06/28 17:17:24;;;;;;;;;;;;;;;10.85;95.30;99586.72;6305703;22;19911;-87
2022/06/28 17:19:53;;;;;;;;;;;;;;;11.11;96.32;99586.41;6303396;22;19915;-88
2022/06/28 17:22:22;;;;;;;;;;;;;;;10.54;93.30;99584.63;6306609;22;19919;-89
2022/06/28 17:24:53;;;;;;;;;;;;;;;10.72;94.91;99582.91;6306176;22;19915;-87
2022/06/28 17:27:18;;;;;;;;;;;;;;;10.97;96.58;99597.69;6305196;22;19946;-87
2022/06/28 17:29:44;;;;;;;;;;;;;;;10.73;94.33;99588.13;6303748;22;19922;-87
2022/06/28 17:32:13;;;;;;;;;;;;;;;10.76;94.56;99591.59;6305233;22;19915;-87
2022/06/28 17:34:41;;;;;;;;;;;;;;;10.92;96.09;99595.25;6305034;22;19946;-87
2022/06/28 17:37:07;;;;;;;;;;;;;;;10.69;94.74;99581.28;6306334;22;19911;-87
2022/06/28 17:39:33;;;;;;;;;;;;;;;10.66;93.72;99586.72;6307077;22;19921;-87
2022/06/28 17:42:06;;;;;;;;;;;;;;;11.06;95.58;99582.19;6305258;22;19949;-87
2022/06/28 17:44:34;;;;;;;;;;;;;;;10.91;95.15;99590.84;6303653;22;20269;-86
2022/06/28 17:46:59;;;;;;;;;;;;;;;10.62;93.09;99590.44;6305154;22;19911;-86
2022/06/28 17:49:29;;;;;;;;;;;;;;;10.93;94.98;99588.13;6307070;22;20375;-88
2022/06/28 17:52:07;;;;;;;;;;;;;;;11.00;96.39;99584.28;6288348;22;19914;-89
2022/06/28 17:54:37;;;;;;;;;;;;;;;10.63;93.52;99581.56;6305104;22;19921;-89
2022/06/28 17:57:38;;;;;;;;;;;;;;;;;;;;;
2022/06/28 18:00:20;;;;;;;;;;;;;;;10.90;95.84;99586.50;6305810;22;19998;-89
2022/06/28 18:02:45;;;;;;;;;;;;;;;10.57;93.73;99587.13;6304075;22;20429;-89
2022/06/28 18:05:11;;;;;;;;;;;;;;;10.97;95.72;99587.06;6305468;22;19934;-89
2022/06/28 18:07:46;;;;;;;;;;;;;;;11.08;96.22;99587.41;6306883;22;19968;-88
2022/06/28 18:10:11;;;;;;;;;;;;;;;10.54;92.85;99584.63;6306721;22;19910;-89
2022/06/28 18:12:36;;;;;;;;;;;;;;;10.84;94.94;99592.94;6303846;22;19924;-88
2022/06/28 18:15:05;;;;;;;;;;;;;;;10.96;96.64;99588.88;6304736;22;19988;-88
2022/06/28 18:17:32;;;;;;;;;;;;;;;10.43;92.83;99592.22;6306179;22;19918;-89
2022/06/28 18:20:15;;;;;;;;;;;;;;;10.75;94.67;99584.56;6306097;22;20044;-89
2022/06/28 18:22:44;;;;;;;;;;;;;;;11.05;96.20;99592.88;6241983;23;20354;-89
2022/06/28 18:25:09;;;;;;;;;;;;;;;10.56;93.36;99590.72;6216850;23;19908;-87
2022/06/28 18:27:34;;;;;;;;;;;;;;;10.78;94.26;99589.72;6216604;23;20374;-88
2022/06/28 18:29:59;;;;;;;;;;;;;;;11.02;95.79;99593.84;6214879;23;19926;-88
2022/06/28 18:32:29;;;;;;;;;;;;;;;10.60;94.38;99579.06;6214010;23;21434;-88
2022/06/28 18:34:54;;;;;;;;;;;;;;;10.47;92.92;99592.00;6216445;23;20067;-88
2022/06/28 18:37:20;;;;;;;;;;;;;;;10.80;95.43;99583.44;6242125;23;19916;-86
2022/06/28 18:39:47;;;;;;;;;;;;;;;11.05;96.80;99591.06;6241868;23;19969;-86
2022/06/28 18:42:13;;;;;;;;;;;;;;;10.37;92.95;99585.41;6240897;23;20335;-86
2022/06/28 18:44:38;;;;;;;;;;;;;;;10.72;94.61;99585.56;6240139;23;19916;-86
2022/06/28 18:47:04;;;;;;;;;;;;;;;10.98;96.31;99584.34;6251323;22;19964;-86
2022/06/28 18:49:32;;;;;;;;;;;;;;;10.60;94.31;99575.56;6306239;22;20388;-86
2022/06/28 18:51:58;;;;;;;;;;;;;;;10.51;93.46;99587.41;6304804;22;19929;-87
2022/06/28 18:54:28;;;;;;;;;;;;;;;10.89;95.65;99592.72;6305195;22;19919;-87
2022/06/28 18:56:54;;;;;;;;;;;;;;;11.01;96.02;99584.19;6306412;22;19985;-87
2022/06/28 18:59:19;;;;;;;;;;;;;;;10.28;92.08;99581.34;6305145;22;20354;-86
2022/06/28 19:01:44;;;;;;;;;;;;;;;10.52;93.11;99573.25;6306356;22;19911;-87
2022/06/28 19:04:12;;;;;;;;;;;;;;;10.86;95.02;99576.97;6304970;22;20005;-87
2022/06/28 19:06:37;;;;;;;;;;;;;;;10.94;95.70;99577.47;6306598;22;19937;-86
2022/06/28 19:09:03;;;;;;;;;;;;;;;10.35;91.49;99577.53;6304720;22;20319;-86
2022/06/28 19:11:28;;;;;;;;;;;;;;;10.63;93.90;99576.25;6304094;22;19958;-86
2022/06/28 19:13:53;;;;;;;;;;;;;;;10.95;96.05;99576.53;6303705;22;19934;-86
2022/06/28 19:16:18;;;;;;;;;;;;;;;10.72;94.51;99570.53;6306202;22;20319;-86
2022/06/28 19:18:44;;;;;;;;;;;;;;;10.42;92.60;99574.59;6304408;22;19911;-86
2022/06/28 19:21:09;;;;;;;;;;;;;;;10.86;95.17;99571.66;6304011;22;20337;-87
2022/06/28 19:23:35;;;;;;;;;;;;;;;11.05;96.40;99580.47;6306601;22;19918;-87
2022/06/28 19:26:03;;;;;;;;;;;;;;;10.45;92.33;99567.38;6306672;22;19911;-87
2022/06/28 19:31:33;;;;;;;;;;;;;;;10.87;95.81;99570.75;6319258;22;19933;-88
2022/06/28 19:36:38;;;;;;;;;;;;;;;10.19;90.73;99571.16;6174080;22;20003;-88
2022/06/28 19:39:06;;;;;;;;;;;;;;;10.70;93.83;99569.72;6283985;22;19948;-88
2022/06/28 19:41:32;;;;;;;;;;;;;;;10.92;95.50;99571.38;6283518;22;19984;-89
2022/06/28 19:43:57;;;;;;;;;;;;;;;10.57;93.96;99571.25;6282693;22;20320;-88
2022/06/28 19:46:22;;;;;;;;;;;;;;;10.50;92.14;99577.78;6179849;22;19913;-88
2022/06/28 19:48:48;;;;;;;;;;;;;;;10.81;94.67;99576.34;6283380;22;20386;-88
2022/06/28 19:51:13;;;;;;;;;;;;;;;11.05;96.18;99567.19;6179324;23;19920;-88
2022/06/28 19:53:38;;;;;;;;;;;;;;;10.44;92.13;99570.94;6285462;22;19916;-88
2022/06/28 19:56:04;;;;;;;;;;;;;;;10.32;91.73;99575.03;6285150;22;19924;-88
2022/06/28 19:58:29;;;;;;;;;;;;;;;10.78;94.56;99573.81;6180750;23;19919;-88
2022/06/28 20:00:55;;;;;;;;;;;;;;;10.99;96.07;99575.47;6179702;23;19946;-88
2022/06/28 20:03:20;;;;;;;;;;;;;;;10.34;92.20;99580.25;6180658;23;19918;-88
2022/06/28 20:05:45;;;;;;;;;;;;;;;10.57;92.76;99584.50;6181218;23;20370;-88
2022/06/28 20:08:14;;;;;;;;;;;;;;;10.93;94.66;99580.19;6181053;23;19952;-88
2022/06/28 20:10:39;;;;;;;;;;;;;;;10.84;94.82;99581.50;6285164;22;19913;-89
2022/06/28 20:13:05;;;;;;;;;;;;;;;10.35;92.47;99585.50;6180811;23;19917;-88
2022/06/28 20:15:31;;;;;;;;;;;;;;;10.87;94.91;99595.44;6180165;23;19908;-88
2022/06/28 20:17:59;;;;;;;;;;;;;;;10.96;96.10;99588.88;6180872;23;20115;-88
2022/06/28 20:20:27;;;;;;;;;;;;;;;10.36;92.12;99586.34;6285167;22;19912;-88
2022/06/28 20:22:55;;;;;;;;;;;;;;;10.67;93.52;99583.16;6285448;22;20221;-87
2022/06/28 20:25:20;;;;;;;;;;;;;;;10.85;95.59;99599.09;6283454;22;19916;-88
2022/06/28 20:27:47;;;;;;;;;;;;;;;10.56;93.65;99596.00;6284655;22;19955;-88
2022/06/28 20:30:13;;;;;;;;;;;;;;;10.41;92.07;99591.44;6284127;22;20201;-87
2022/06/28 20:32:39;;;;;;;;;;;;;;;10.84;94.64;99589.44;6180989;23;19991;-88
2022/06/28 20:35:04;;;;;;;;;;;;;;;10.97;95.74;99590.56;6284553;22;19936;-88
2022/06/28 20:38:16;;;;;;;;;;;;;;;10.35;91.60;99588.13;6181010;23;19912;-94
2022/06/28 20:42:11;;;;;;;;;;;;;;;10.69;94.03;99586.59;6285596;22;19912;-89
2022/06/28 20:46:51;;;;;;;;;;;;;;;;;;;;;
2022/06/28 20:55:29;;;;;;;;;;;;;;;;;;;;;
2022/06/28 20:58:00;;;;;;;;;;;;;;;10.49;93.15;99590.13;6181215;23;19995;-89
2022/06/28 21:03:54;;;;;;;;;;;;;;;10.37;92.69;99569.53;6159487;23;19912;-89
2022/06/28 21:06:30;;;;;;;;;;;;;;;10.30;92.32;99576.84;6284826;22;19948;-91
2022/06/28 21:18:44;;;;;;;;;;;;;;;;;;;;;
2022/06/28 21:24:44;;;;;;;;;;;;;;;10.03;90.59;99568.34;6011009;23;19981;-91
2022/06/28 21:27:09;;;;;;;;;;;;;;;10.60;94.00;99565.81;6031380;23;20017;-90
2022/06/28 21:39:31;;;;;;;;;;;;;;;;;;;;;